Time;durP1;ratioP1;P1;durP2;ratioP2;P2;SDS_P1;SDS_P2;PMS_P1;PMS_P2;Temp;Humidity;BMP_temperature;BMP_pressure;BME280_temperature;BME280_humidity;BME280_pressure;Samples;Min_cycle;Max_cycle;Signal;HPM_P1;HPM_P2
2023/08/21 00:02:54;;;;;;;16.90;12.00;;;18.70;99.90;;;;;;8399497;28;20037;-82
2023/08/21 00:06:54;;;;;;;15.20;11.52;;;18.60;99.90;;;;;;8403832;28;20020;-82
2023/08/21 00:10:56;;;;;;;15.68;12.25;;;18.60;99.90;;;;;;8376863;28;20040;-83
2023/08/21 00:14:57;;;;;;;18.50;13.15;;;18.50;99.90;;;;;;8394446;28;20027;-82
2023/08/21 00:18:58;;;;;;;13.13;10.88;;;18.50;99.90;;;;;;8398110;28;20025;-82
2023/08/21 00:22:58;;;;;;;15.95;12.25;;;18.50;99.90;;;;;;8395978;28;20025;-81
2023/08/21 00:26:59;;;;;;;14.05;11.65;;;18.30;99.90;;;;;;8411242;28;20016;-82
2023/08/21 00:31:04;;;;;;;15.80;12.77;;;18.30;99.90;;;;;;8387226;28;20059;-82
2023/08/21 00:35:05;;;;;;;15.77;12.63;;;18.20;99.90;;;;;;8387398;28;20016;-82
2023/08/21 00:39:06;;;;;;;15.02;12.70;;;18.10;99.90;;;;;;8391094;28;20020;-82
2023/08/21 00:43:07;;;;;;;19.50;12.48;;;18.20;99.90;;;;;;8397301;28;20027;-82
2023/08/21 00:47:07;;;;;;;15.10;12.98;;;18.20;99.90;;;;;;8391066;28;20060;-82
2023/08/21 00:51:08;;;;;;;15.43;12.15;;;18.10;99.90;;;;;;8391952;28;20024;-82
2023/08/21 00:55:09;;;;;;;15.98;11.88;;;18.00;99.90;;;;;;8379687;28;20028;-83
2023/08/21 00:59:11;;;;;;;15.27;12.38;;;17.90;99.90;;;;;;8395207;28;20028;-82
2023/08/21 01:03:11;;;;;;;16.58;13.68;;;17.90;99.90;;;;;;8386380;28;20496;-82
2023/08/21 01:07:14;;;;;;;16.65;12.40;;;17.80;99.90;;;;;;8377332;28;20025;-83
2023/08/21 01:11:26;;;;;;;17.55;14.63;;;17.80;99.90;;;;;;8370404;28;20511;-82
2023/08/21 01:15:28;;;;;;;16.45;12.55;;;17.80;99.90;;;;;;8394305;28;20020;-82
2023/08/21 01:19:43;;;;;;;19.83;14.20;;;17.90;99.90;;;;;;8407008;28;20029;-82
2023/08/21 01:23:44;;;;;;;16.02;13.98;;;17.90;99.90;;;;;;8393940;28;20380;-81
2023/08/21 01:27:49;;;;;;;17.25;13.15;;;17.90;99.90;;;;;;8386941;28;20028;-82
2023/08/21 01:31:55;;;;;;;17.17;13.65;;;18.00;99.90;;;;;;8386161;28;20036;-82
2023/08/21 01:35:57;;;;;;;16.38;14.30;;;17.90;99.90;;;;;;8379512;28;20385;-82
2023/08/21 01:39:58;;;;;;;21.27;12.73;;;17.90;99.90;;;;;;8383890;28;20028;-82
2023/08/21 01:43:59;;;;;;;14.90;11.82;;;17.80;99.90;;;;;;8379122;28;20035;-83
2023/08/21 01:47:59;;;;;;;15.10;13.45;;;17.70;99.90;;;;;;8377793;28;20491;-82
2023/08/21 01:52:00;;;;;;;24.20;15.82;;;17.70;99.90;;;;;;8379647;28;20112;-82
2023/08/21 01:56:00;;;;;;;16.75;12.55;;;17.60;99.90;;;;;;8377972;28;20028;-82
2023/08/21 02:00:04;;;;;;;14.98;13.38;;;17.50;99.90;;;;;;8393447;28;20027;-82
2023/08/21 02:04:04;;;;;;;19.48;14.02;;;17.40;99.90;;;;;;8394885;28;20021;-82
2023/08/21 02:08:06;;;;;;;16.10;14.38;;;17.40;99.90;;;;;;8410881;28;20105;-84
2023/08/21 02:12:07;;;;;;;23.90;14.57;;;17.50;99.90;;;;;;8378192;28;20082;-82
2023/08/21 02:16:07;;;;;;;16.75;13.77;;;17.50;99.90;;;;;;8386419;28;20495;-81
2023/08/21 02:20:09;;;;;;;21.77;15.10;;;17.40;99.90;;;;;;8396870;28;20028;-82
2023/08/21 02:24:10;;;;;;;21.30;16.73;;;17.30;99.90;;;;;;8374812;28;20108;-82
2023/08/21 02:28:10;;;;;;;19.52;16.08;;;17.30;99.90;;;;;;8392781;28;20020;-82
2023/08/21 02:32:11;;;;;;;20.15;14.70;;;17.20;99.90;;;;;;8366921;28;20493;-82
2023/08/21 02:36:11;;;;;;;15.85;14.02;;;17.20;99.90;;;;;;8389672;28;20029;-82
2023/08/21 02:40:12;;;;;;;16.20;14.00;;;17.10;99.90;;;;;;8386491;28;20119;-82
2023/08/21 02:44:13;;;;;;;18.23;14.52;;;17.00;99.90;;;;;;8378654;28;20107;-82
2023/08/21 02:48:13;;;;;;;18.92;14.30;;;17.10;99.90;;;;;;8406757;28;20491;-82
2023/08/21 02:52:14;;;;;;;20.45;13.70;;;17.00;99.90;;;;;;8371552;28;20032;-82
2023/08/21 02:56:14;;;;;;;18.23;14.85;;;16.90;99.90;;;;;;8368748;28;20025;-82
2023/08/21 03:00:15;;;;;;;19.95;13.68;;;17.00;99.90;;;;;;8368805;28;20031;-82
2023/08/21 03:04:15;;;;;;;18.83;15.02;;;16.90;99.90;;;;;;8358572;28;20128;-82
2023/08/21 03:08:16;;;;;;;17.70;15.00;;;16.80;99.90;;;;;;8393237;28;20162;-82
2023/08/21 03:12:17;;;;;;;17.75;14.05;;;16.70;99.90;;;;;;8377303;28;20048;-82
2023/08/21 03:16:17;;;;;;;18.48;14.82;;;16.70;99.90;;;;;;8399063;28;20021;-82
2023/08/21 03:20:18;;;;;;;17.48;14.40;;;16.70;99.90;;;;;;8402978;28;20122;-83
2023/08/21 03:24:19;;;;;;;22.52;15.73;;;16.60;99.90;;;;;;8410135;28;20020;-82
2023/08/21 03:28:19;;;;;;;18.92;14.60;;;16.60;99.90;;;;;;8363309;28;20021;-82
2023/08/21 03:32:20;;;;;;;19.48;15.18;;;16.60;99.90;;;;;;8368401;28;20035;-82
2023/08/21 03:36:20;;;;;;;22.20;16.40;;;16.50;99.90;;;;;;8387829;28;20021;-83
2023/08/21 03:40:21;;;;;;;26.30;18.38;;;16.50;99.90;;;;;;8398932;28;20717;-82
2023/08/21 03:44:21;;;;;;;20.50;14.27;;;16.50;99.90;;;;;;8398521;28;20025;-82
2023/08/21 03:48:22;;;;;;;20.67;16.50;;;16.60;99.90;;;;;;8375941;28;20556;-82
2023/08/21 03:52:23;;;;;;;18.23;15.00;;;16.60;99.90;;;;;;8396031;28;20057;-81
2023/08/21 03:56:24;;;;;;;21.33;15.73;;;16.50;99.90;;;;;;8388534;28;20020;-83
2023/08/21 04:00:25;;;;;;;23.63;16.55;;;16.40;99.90;;;;;;8377268;28;20064;-81
2023/08/21 04:04:25;;;;;;;19.35;15.40;;;16.40;99.90;;;;;;8379481;28;20035;-82
2023/08/21 04:08:26;;;;;;;19.60;15.43;;;16.40;99.90;;;;;;8376395;28;20135;-81
2023/08/21 04:12:26;;;;;;;23.92;18.55;;;16.30;99.90;;;;;;8385792;28;20082;-81
2023/08/21 04:16:28;;;;;;;27.45;18.63;;;16.30;99.90;;;;;;8384591;28;20027;-82
2023/08/21 04:20:28;;;;;;;24.42;19.75;;;16.50;99.90;;;;;;8388827;28;20434;-81
2023/08/21 04:24:29;;;;;;;22.77;17.98;;;16.60;99.90;;;;;;8390809;28;20025;-81
2023/08/21 04:28:31;;;;;;;23.73;18.33;;;16.60;99.90;;;;;;8368545;28;20028;-82
2023/08/21 04:32:31;;;;;;;21.75;18.15;;;16.60;99.90;;;;;;8370644;28;20028;-82
2023/08/21 04:36:32;;;;;;;24.95;16.48;;;16.70;99.90;;;;;;8372032;28;20509;-83
2023/08/21 04:40:32;;;;;;;22.33;18.13;;;16.60;99.90;;;;;;8374930;28;20134;-82
2023/08/21 04:44:33;;;;;;;20.35;17.52;;;16.50;99.90;;;;;;8393769;28;20035;-83
2023/08/21 04:48:34;;;;;;;22.50;17.52;;;16.50;99.90;;;;;;8362731;28;20035;-83
2023/08/21 04:52:34;;;;;;;22.40;18.27;;;16.60;99.90;;;;;;8375310;28;20023;-83
2023/08/21 04:56:35;;;;;;;23.88;19.42;;;16.70;99.90;;;;;;8381993;28;20031;-82
2023/08/21 05:00:36;;;;;;;20.00;16.85;;;16.70;99.90;;;;;;8395134;28;20024;-84
2023/08/21 05:04:37;;;;;;;22.77;17.67;;;16.90;99.90;;;;;;8381233;28;20028;-83
2023/08/21 05:08:38;;;;;;;20.90;16.80;;;16.90;99.90;;;;;;8370095;28;20029;-82
2023/08/21 05:12:38;;;;;;;23.33;16.65;;;17.10;99.90;;;;;;8375835;28;20455;-82
2023/08/21 05:16:39;;;;;;;22.90;15.45;;;17.20;99.90;;;;;;8392596;28;20152;-82
2023/08/21 05:20:39;;;;;;;20.88;17.02;;;17.30;99.90;;;;;;8391519;28;20369;-82
2023/08/21 05:24:40;;;;;;;18.27;16.10;;;17.40;99.90;;;;;;8393878;28;20028;-82
2023/08/21 05:28:40;;;;;;;18.70;16.33;;;17.50;99.90;;;;;;8379533;28;20108;-82
2023/08/21 05:32:41;;;;;;;24.50;16.55;;;17.60;99.90;;;;;;8394175;28;20020;-82
2023/08/21 05:36:41;;;;;;;21.08;15.40;;;17.70;99.90;;;;;;8393526;28;20013;-82
2023/08/21 05:40:42;;;;;;;22.10;16.85;;;17.90;99.90;;;;;;8377315;28;20025;-82
2023/08/21 05:44:43;;;;;;;20.88;16.48;;;18.00;99.90;;;;;;8407967;28;20024;-82
2023/08/21 05:48:43;;;;;;;20.40;15.80;;;18.50;99.90;;;;;;8407803;28;20103;-82
2023/08/21 05:52:44;;;;;;;17.25;14.55;;;18.80;99.90;;;;;;8406069;28;20031;-82
2023/08/21 05:56:44;;;;;;;14.20;12.68;;;19.40;99.90;;;;;;8388913;28;20021;-83
2023/08/21 06:00:47;;;;;;;15.10;12.93;;;20.10;99.90;;;;;;8398461;28;20031;-82
2023/08/21 06:04:47;;;;;;;13.18;11.88;;;21.20;99.90;;;;;;8393759;28;20416;-83
2023/08/21 06:08:48;;;;;;;14.73;11.43;;;22.30;99.90;;;;;;8371908;28;20020;-82
2023/08/21 06:12:49;;;;;;;16.25;12.18;;;23.10;99.90;;;;;;8372762;28;20029;-83
2023/08/21 06:16:49;;;;;;;13.13;11.73;;;23.50;99.90;;;;;;8355022;28;20024;-86
2023/08/21 06:20:53;;;;;;;15.05;11.90;;;23.40;99.90;;;;;;8379207;28;20544;-83
2023/08/21 06:24:53;;;;;;;15.52;12.20;;;23.00;99.90;;;;;;8387270;28;20103;-83
2023/08/21 06:28:54;;;;;;;15.50;12.05;;;23.00;99.90;;;;;;8388723;28;20024;-83
2023/08/21 06:32:56;;;;;;;16.58;12.25;;;23.30;99.90;;;;;;8397030;28;20047;-83
2023/08/21 06:36:56;;;;;;;16.08;11.60;;;23.10;99.90;;;;;;8387843;28;20023;-83
2023/08/21 06:40:57;;;;;;;16.98;12.50;;;23.00;99.90;;;;;;8412728;28;20074;-83
2023/08/21 06:44:57;;;;;;;16.05;12.30;;;22.90;99.90;;;;;;8387268;28;20016;-83
2023/08/21 06:48:58;;;;;;;14.10;12.45;;;22.80;99.90;;;;;;8398009;28;20044;-82
2023/08/21 06:52:58;;;;;;;13.63;11.25;;;23.20;99.90;;;;;;8376607;28;20029;-83
2023/08/21 06:56:59;;;;;;;24.70;11.40;;;23.60;99.90;;;;;;8399018;28;20051;-82
2023/08/21 07:01:01;;;;;;;14.75;11.77;;;24.10;99.90;;;;;;8384943;28;20028;-86
2023/08/21 07:05:02;;;;;;;15.95;11.38;;;24.40;99.90;;;;;;8382853;28;20053;-83
2023/08/21 07:09:04;;;;;;;15.55;12.48;;;24.90;99.90;;;;;;8382053;28;20439;-83
2023/08/21 07:13:04;;;;;;;22.20;14.02;;;26.00;99.90;;;;;;8397713;28;20036;-83
2023/08/21 07:17:05;;;;;;;16.73;12.00;;;27.30;99.90;;;;;;8410588;28;20693;-83
2023/08/21 07:21:05;;;;;;;18.70;14.10;;;28.00;99.90;;;;;;8375908;28;20482;-82
2023/08/21 07:25:06;;;;;;;18.23;12.50;;;28.20;99.90;;;;;;8384018;28;20027;-83
2023/08/21 07:29:07;;;;;;;13.23;11.68;;;28.20;99.90;;;;;;8417008;28;20021;-82
2023/08/21 07:33:08;;;;;;;14.18;12.32;;;28.50;99.90;;;;;;8375106;28;20500;-84
2023/08/21 07:37:09;;;;;;;13.65;12.25;;;28.60;99.90;;;;;;8414638;28;20016;-86
2023/08/21 07:41:11;;;;;;;13.88;11.55;;;29.10;99.90;;;;;;8392048;28;20083;-84
2023/08/21 07:45:11;;;;;;;15.00;11.65;;;29.20;99.90;;;;;;8374092;28;20035;-84
2023/08/21 07:49:12;;;;;;;13.82;12.48;;;29.20;99.90;;;;;;8395054;28;20520;-83
2023/08/21 07:53:12;;;;;;;17.45;12.98;;;29.10;99.90;;;;;;8407158;28;20024;-83
2023/08/21 07:57:13;;;;;;;13.88;11.30;;;29.10;99.90;;;;;;8416283;28;20472;-83
2023/08/21 08:01:14;;;;;;;12.68;11.20;;;29.70;99.90;;;;;;8390316;28;20434;-82
2023/08/21 08:05:14;;;;;;;13.77;11.32;;;29.70;99.90;;;;;;8390819;28;20095;-83
2023/08/21 08:09:15;;;;;;;14.25;11.52;;;29.50;99.90;;;;;;8365247;28;20019;-83
2023/08/21 08:13:15;;;;;;;14.05;10.80;;;29.40;99.90;;;;;;8372761;28;20017;-83
2023/08/21 08:17:16;;;;;;;13.73;10.93;;;29.60;99.90;;;;;;8407736;28;20048;-82
2023/08/21 08:21:17;;;;;;;15.48;10.63;;;29.40;99.90;;;;;;8392287;28;20029;-82
2023/08/21 08:25:18;;;;;;;12.10;10.75;;;29.20;99.90;;;;;;8376341;28;20021;-82
2023/08/21 08:29:18;;;;;;;13.35;10.35;;;29.70;99.90;;;;;;8414346;28;20031;-83
2023/08/21 08:33:19;;;;;;;13.93;9.88;;;30.00;99.90;;;;;;8378250;28;20036;-83
2023/08/21 08:37:20;;;;;;;10.23;9.13;;;29.80;99.90;;;;;;8364883;28;20025;-83
2023/08/21 08:41:37;;;;;;;12.50;9.20;;;30.20;99.90;;;;;;8373995;28;20032;-83
2023/08/21 08:45:38;;;;;;;14.98;10.15;;;30.90;99.90;;;;;;8374262;28;20052;-83
2023/08/21 08:49:38;;;;;;;11.82;8.93;;;31.00;99.90;;;;;;8392489;28;20424;-83
2023/08/21 08:53:40;;;;;;;10.88;8.32;;;31.10;99.90;;;;;;8403013;28;20044;-83
2023/08/21 08:57:40;;;;;;;12.05;8.70;;;31.20;99.90;;;;;;8395689;28;20060;-83
2023/08/21 09:01:41;;;;;;;11.75;8.85;;;31.20;99.90;;;;;;8387306;28;20392;-83
2023/08/21 09:05:42;;;;;;;11.48;9.35;;;31.10;99.90;;;;;;8380401;28;20020;-83
2023/08/21 09:09:52;;;;;;;13.32;9.32;;;31.40;99.90;;;;;;8384139;28;20096;-83
2023/08/21 09:13:53;;;;;;;;;;;31.30;99.90;;;;;;8396549;28;20119;-83
2023/08/21 09:17:54;;;;;;;17.95;10.32;;;31.30;99.90;;;;;;8367426;28;19999;-83
2023/08/21 09:21:55;;;;;;;11.75;8.32;;;31.40;99.90;;;;;;8383473;28;20028;-83
2023/08/21 09:25:56;;;;;;;10.75;8.27;;;31.10;99.90;;;;;;8397898;28;20025;-83
2023/08/21 09:29:57;;;;;;;21.77;9.02;;;31.00;99.90;;;;;;8395884;28;20124;-83
2023/08/21 09:34:04;;;;;;;20.30;8.30;;;31.00;99.90;;;;;;8358993;28;20029;-83
2023/08/21 09:38:06;;;;;;;10.85;7.93;;;31.00;99.90;;;;;;8378645;28;20090;-83
2023/08/21 09:42:07;;;;;;;10.18;7.97;;;31.00;99.90;;;;;;8395046;28;20027;-83
2023/08/21 09:46:08;;;;;;;12.98;8.30;;;31.30;99.90;;;;;;8371829;28;20388;-83
2023/08/21 09:50:09;;;;;;;11.20;8.15;;;31.70;99.90;;;;;;8401179;28;20090;-83
2023/08/21 09:54:10;;;;;;;28.65;13.20;;;32.00;99.90;;;;;;8389275;28;20016;-85
2023/08/21 09:58:11;;;;;;;12.10;7.70;;;32.10;99.90;;;;;;8397541;28;20021;-87
2023/08/21 10:02:12;;;;;;;8.45;7.65;;;32.20;99.90;;;;;;8359353;22;20050;-80
2023/08/21 10:06:15;;;;;;;7.80;7.00;;;32.10;99.90;;;;;;8346493;28;20022;-80
2023/08/21 10:10:17;;;;;;;9.73;7.93;;;32.50;99.90;;;;;;8277030;28;20393;-80
2023/08/21 10:14:18;;;;;;;10.20;7.97;;;32.20;99.90;;;;;;8342108;28;20018;-81
2023/08/21 10:18:23;;;;;;;9.23;7.47;;;32.60;99.90;;;;;;8262190;28;20538;-81
2023/08/21 10:22:48;;;;;;;10.23;7.80;;;32.80;99.90;;;;;;8344395;28;20513;-80
2023/08/21 10:26:49;;;;;;;10.70;8.00;;;32.90;99.90;;;;;;8349607;28;20506;-80
2023/08/21 10:30:51;;;;;;;10.38;7.78;;;33.40;99.90;;;;;;8350163;28;20212;-80
2023/08/21 10:34:53;;;;;;;10.38;7.05;;;34.20;99.90;;;;;;8280877;28;20033;-80
2023/08/21 10:39:00;;;;;;;10.32;7.22;;;35.00;99.90;;;;;;8274763;28;20183;-80
2023/08/21 10:43:01;;;;;;;9.10;7.35;;;34.90;99.00;;;;;;8342208;28;20026;-80
2023/08/21 10:47:22;;;;;;;9.02;7.72;;;35.40;99.90;;;;;;8347066;28;20021;-80
2023/08/21 10:51:23;;;;;;;8.95;7.55;;;36.50;98.30;;;;;;8274296;28;20101;-80
2023/08/21 10:55:23;;;;;;;10.25;6.88;;;36.60;98.90;;;;;;8279755;28;20022;-80
2023/08/21 10:59:24;;;;;;;10.18;7.30;;;36.90;94.70;;;;;;8280586;28;20106;-80
2023/08/21 11:03:25;;;;;;;9.13;8.05;;;36.80;95.60;;;;;;8349684;28;20460;-81
2023/08/21 11:07:27;;;;;;;10.82;7.82;;;36.60;97.00;;;;;;8341526;28;20023;-80
2023/08/21 11:11:27;;;;;;;9.02;7.25;;;36.20;95.30;;;;;;8344458;28;20375;-80
2023/08/21 11:15:29;;;;;;;13.73;7.65;;;36.60;95.00;;;;;;8353319;28;20026;-80
2023/08/21 11:19:31;;;;;;;11.32;8.13;;;36.80;96.00;;;;;;8349828;28;20026;-80
2023/08/21 11:23:34;;;;;;;8.85;7.35;;;36.40;94.10;;;;;;8353252;28;20038;-80
2023/08/21 11:27:35;;;;;;;7.70;6.95;;;37.40;93.90;;;;;;8354494;28;20105;-80
2023/08/21 11:31:35;;;;;;;8.60;6.47;;;37.70;92.60;;;;;;8278735;28;20327;-81
2023/08/21 11:35:38;;;;;;;7.72;6.43;;;37.40;91.70;;;;;;8354150;28;20026;-80
2023/08/21 11:39:47;;;;;;;7.45;6.50;;;36.60;92.80;;;;;;8340419;28;20471;-80
2023/08/21 11:43:48;;;;;;;10.15;6.57;;;36.60;92.10;;;;;;8348115;28;20114;-80
2023/08/21 11:47:48;;;;;;;8.63;7.03;;;37.50;90.70;;;;;;8272294;28;20022;-81
2023/08/21 11:51:50;;;;;;;7.38;6.57;;;38.70;88.30;;;;;;8269365;28;20023;-81
2023/08/21 11:55:51;;;;;;;7.43;6.70;;;39.00;87.10;;;;;;8344323;28;20049;-81
2023/08/21 11:59:55;;;;;;;6.88;6.28;;;40.00;84.00;;;;;;8339066;28;20037;-81
2023/08/21 12:03:56;;;;;;;6.90;6.20;;;40.10;73.30;;;;;;8343826;28;20106;-81
2023/08/21 12:07:56;;;;;;;18.15;6.63;;;38.50;83.10;;;;;;8260109;28;20083;-80
2023/08/21 12:11:57;;;;;;;9.30;6.55;;;38.70;80.60;;;;;;8351741;28;20014;-81
2023/08/21 12:15:58;;;;;;;7.70;6.55;;;38.60;83.20;;;;;;8351991;28;20014;-81
2023/08/21 12:19:58;;;;;;;7.18;5.90;;;38.70;79.70;;;;;;8283911;28;20046;-81
2023/08/21 12:23:59;;;;;;;8.32;6.00;;;39.80;80.90;;;;;;8351345;28;20511;-81
2023/08/21 12:27:59;;;;;;;10.23;7.30;;;39.90;73.90;;;;;;8353123;28;20071;-81
2023/08/21 12:32:00;;;;;;;7.22;6.32;;;39.20;74.70;;;;;;8284316;28;20489;-81
2023/08/21 12:36:00;;;;;;;8.98;6.38;;;40.50;76.80;;;;;;8353610;28;20026;-81
2023/08/21 12:40:01;;;;;;;7.50;6.45;;;40.50;68.90;;;;;;8332726;28;20061;-81
2023/08/21 12:44:08;;;;;;;7.22;6.10;;;41.00;74.20;;;;;;8265259;28;20026;-81
2023/08/21 12:48:09;;;;;;;6.40;5.80;;;41.90;68.20;;;;;;8277091;28;20041;-82
2023/08/21 12:52:09;;;;;;;8.68;6.32;;;42.50;65.60;;;;;;8337579;28;20022;-81
2023/08/21 12:56:10;;;;;;;10.38;6.15;;;42.60;63.10;;;;;;8345284;28;20023;-81
2023/08/21 13:00:11;;;;;;;9.50;6.18;;;42.60;62.20;;;;;;8330389;28;20026;-81
2023/08/21 13:04:12;;;;;;;7.68;6.20;;;42.80;62.30;;;;;;8320380;28;20031;-82
2023/08/21 13:08:13;;;;;;;8.25;6.28;;;43.10;61.00;;;;;;8264746;28;20031;-82
2023/08/21 13:12:14;;;;;;;8.73;6.80;;;43.40;59.20;;;;;;8329746;28;20023;-81
2023/08/21 13:16:15;;;;;;;8.75;6.00;;;43.90;60.50;;;;;;8334631;28;20037;-82
2023/08/21 13:20:15;;;;;;;7.78;6.00;;;43.80;58.10;;;;;;8336787;28;20025;-81
2023/08/21 13:24:16;;;;;;;11.50;6.18;;;43.90;56.60;;;;;;8350724;28;20022;-82
2023/08/21 13:28:16;;;;;;;7.72;5.57;;;44.50;54.10;;;;;;8337229;28;20113;-82
2023/08/21 13:32:17;;;;;;;7.88;5.20;;;45.00;52.10;;;;;;8345278;28;20026;-82
2023/08/21 13:36:20;;;;;;;7.50;5.82;;;45.00;53.40;;;;;;8351173;28;20019;-82
2023/08/21 13:40:20;;;;;;;8.50;6.05;;;45.20;52.30;;;;;;8329906;28;20539;-82
2023/08/21 13:44:21;;;;;;;7.28;6.05;;;44.70;50.20;;;;;;8276946;28;20033;-82
2023/08/21 13:48:21;;;;;;;6.22;5.63;;;43.60;54.30;;;;;;8269316;28;20026;-82
2023/08/21 13:52:22;;;;;;;8.27;5.70;;;44.70;51.50;;;;;;8261784;28;20054;-82
2023/08/21 13:56:22;;;;;;;8.30;5.28;;;44.80;52.90;;;;;;8275939;28;20033;-82
2023/08/21 14:00:23;;;;;;;7.70;5.03;;;45.30;49.70;;;;;;8275434;28;20210;-82
2023/08/21 14:04:24;;;;;;;8.90;5.25;;;45.10;48.80;;;;;;8344075;28;20022;-80
2023/08/21 14:08:24;;;;;;;7.40;4.78;;;44.40;49.50;;;;;;8331045;28;20533;-81
2023/08/21 14:12:25;;;;;;;9.75;5.10;;;44.30;47.60;;;;;;8336956;28;20033;-82
2023/08/21 14:16:25;;;;;;;7.90;4.75;;;44.30;50.40;;;;;;8335994;28;20516;-81
2023/08/21 14:20:26;;;;;;;9.10;5.05;;;44.30;50.80;;;;;;8348822;28;20371;-81
2023/08/21 14:24:26;;;;;;;5.97;4.72;;;45.00;50.80;;;;;;8329045;28;20027;-82
2023/08/21 14:28:27;;;;;;;7.95;5.03;;;45.30;45.90;;;;;;8335497;28;20485;-81
2023/08/21 14:32:28;;;;;;;7.70;5.20;;;44.70;50.00;;;;;;8342104;28;20050;-81
2023/08/21 14:36:28;;;;;;;8.98;5.07;;;42.90;48.20;;;;;;8336047;28;20018;-81
2023/08/21 14:40:29;;;;;;;11.13;5.70;;;39.80;54.60;;;;;;8342276;28;20034;-81
2023/08/21 14:44:29;;;;;;;10.82;5.70;;;38.80;56.80;;;;;;8341361;28;20021;-81
2023/08/21 14:48:30;;;;;;;9.20;5.50;;;40.10;54.40;;;;;;8261895;28;20482;-81
2023/08/21 14:52:30;;;;;;;8.73;5.20;;;37.80;62.80;;;;;;8274272;28;20038;-81
2023/08/21 14:56:31;;;;;;;9.90;5.47;;;38.10;59.20;;;;;;8275759;28;20072;-81
2023/08/21 15:00:32;;;;;;;9.15;5.82;;;40.70;56.20;;;;;;8346763;28;20120;-81
2023/08/21 15:04:32;;;;;;;11.20;6.30;;;41.50;55.30;;;;;;8282077;28;20029;-82
2023/08/21 15:08:33;;;;;;;59.13;21.95;;;42.80;51.20;;;;;;8343133;28;20034;-81
2023/08/21 15:12:34;;;;;;;9.07;5.15;;;42.70;49.10;;;;;;8263797;28;20034;-81
2023/08/21 15:16:34;;;;;;;9.13;5.22;;;43.80;49.60;;;;;;8259857;28;20022;-81
2023/08/21 15:20:35;;;;;;;15.35;7.57;;;43.40;48.40;;;;;;8334075;28;20363;-81
2023/08/21 15:24:35;;;;;;;38.65;13.63;;;43.30;54.70;;;;;;8348969;28;20109;-80
2023/08/21 15:28:36;;;;;;;9.98;5.75;;;41.90;56.10;;;;;;8324302;28;21435;-80
2023/08/21 15:32:36;;;;;;;14.52;7.22;;;41.40;53.50;;;;;;8321030;28;20073;-80
2023/08/21 15:36:37;;;;;;;52.20;17.75;;;42.00;56.40;;;;;;8314426;28;20079;-80
2023/08/21 15:40:38;;;;;;;31.85;12.00;;;42.40;55.60;;;;;;8331943;28;20019;-80
2023/08/21 15:44:38;;;;;;;17.20;6.60;;;41.50;56.60;;;;;;8264280;28;20096;-80
2023/08/21 15:48:39;;;;;;;10.43;5.60;;;40.50;55.70;;;;;;8340444;28;20057;-80
2023/08/21 15:52:39;;;;;;;11.77;6.15;;;40.30;56.30;;;;;;8331389;28;20033;-80
2023/08/21 15:56:40;;;;;;;10.18;5.72;;;39.50;56.70;;;;;;8328378;28;20029;-81
2023/08/21 16:00:41;;;;;;;9.00;5.50;;;37.90;57.50;;;;;;8355383;22;20050;-80
2023/08/21 16:04:41;;;;;;;9.18;5.22;;;36.10;64.50;;;;;;8282339;28;20470;-79
2023/08/21 16:08:42;;;;;;;9.45;6.38;;;34.90;69.50;;;;;;8342035;28;20029;-79
2023/08/21 16:12:42;;;;;;;7.35;5.63;;;34.00;77.00;;;;;;8311824;28;20045;-79
2023/08/21 16:16:43;;;;;;;11.52;6.07;;;33.40;76.80;;;;;;8301933;28;20518;-79
2023/08/21 16:20:43;;;;;;;8.05;6.10;;;32.50;79.50;;;;;;8310416;28;20026;-79
2023/08/21 16:24:44;;;;;;;10.35;6.35;;;32.10;83.50;;;;;;8239407;28;20073;-78
2023/08/21 16:28:44;;;;;;;10.85;6.45;;;31.90;83.90;;;;;;8313419;28;20038;-78
2023/08/21 16:32:45;;;;;;;8.07;5.93;;;31.70;87.50;;;;;;8311986;28;20061;-79
2023/08/21 16:36:46;;;;;;;12.95;6.80;;;31.40;88.80;;;;;;8309772;28;20023;-79
2023/08/21 16:40:48;;;;;;;10.18;5.90;;;30.90;90.40;;;;;;8307039;28;20030;-78
2023/08/21 16:44:49;;;;;;;12.45;6.65;;;30.60;88.90;;;;;;8252828;28;20501;-80
2023/08/21 16:48:49;;;;;;;6.63;5.95;;;30.40;91.50;;;;;;8317939;28;20046;-81
2023/08/21 16:52:50;;;;;;;9.13;6.28;;;30.40;91.80;;;;;;8297288;28;20061;-81
2023/08/21 16:56:50;;;;;;;8.27;5.85;;;30.50;92.50;;;;;;8242172;28;20049;-79
2023/08/21 17:00:53;;;;;;;13.43;6.55;;;30.50;92.80;;;;;;8246216;28;20031;-81
2023/08/21 17:04:54;;;;;;;15.32;6.32;;;30.50;93.10;;;;;;8312420;28;20521;-81
2023/08/21 17:08:54;;;;;;;8.32;6.55;;;30.20;95.00;;;;;;8246603;28;20030;-81
2023/08/21 17:12:55;;;;;;;7.45;6.28;;;29.60;97.50;;;;;;8240144;28;20041;-83
2023/08/21 17:16:55;;;;;;;8.63;6.50;;;29.30;97.20;;;;;;8310929;28;20022;-82
2023/08/21 17:20:56;;;;;;;9.02;6.00;;;28.90;97.80;;;;;;8245592;28;20030;-81
2023/08/21 17:24:56;;;;;;;9.43;6.47;;;28.70;99.20;;;;;;8237842;28;20030;-81
2023/08/21 17:28:57;;;;;;;10.35;5.97;;;28.50;99.90;;;;;;8235014;28;20043;-82
2023/08/21 17:33:00;;;;;;;7.63;6.25;;;28.20;99.90;;;;;;8310572;28;20019;-81
2023/08/21 17:37:01;;;;;;;9.30;6.30;;;28.10;99.90;;;;;;8309032;28;20030;-81
2023/08/21 17:41:02;;;;;;;8.73;6.60;;;27.90;99.90;;;;;;8250431;28;20065;-81
2023/08/21 17:45:04;;;;;;;11.90;6.00;;;27.80;99.90;;;;;;8317667;28;20023;-81
2023/08/21 17:49:04;;;;;;;8.90;6.35;;;27.40;99.90;;;;;;8244336;28;20026;-81
2023/08/21 17:53:05;;;;;;;11.73;6.35;;;27.30;99.90;;;;;;8252175;28;20026;-81
2023/08/21 17:57:05;;;;;;;8.75;6.40;;;27.10;99.90;;;;;;8319260;28;20019;-82
2023/08/21 18:01:06;;;;;;;7.88;6.38;;;27.10;99.90;;;;;;8237606;28;20107;-81
2023/08/21 18:05:07;;;;;;;8.98;6.10;;;27.00;99.90;;;;;;8308129;28;20027;-82
2023/08/21 18:09:07;;;;;;;9.38;6.60;;;26.80;99.90;;;;;;8305081;28;20037;-81
2023/08/21 18:13:08;;;;;;;10.90;7.45;;;26.60;99.90;;;;;;8241671;28;20038;-81
2023/08/21 18:17:14;;;;;;;12.50;6.68;;;26.40;99.90;;;;;;8317192;28;20593;-81
2023/08/21 18:21:14;;;;;;;11.60;7.25;;;26.00;99.90;;;;;;8305770;28;20025;-82
2023/08/21 18:25:15;;;;;;;11.45;8.20;;;25.70;99.90;;;;;;8250725;28;20027;-82
2023/08/21 18:29:15;;;;;;;31.80;26.77;;;25.50;99.90;;;;;;8315859;28;20109;-81
2023/08/21 18:33:16;;;;;;;11.63;8.13;;;25.30;99.90;;;;;;8317342;28;20027;-81
2023/08/21 18:37:17;;;;;;;12.00;8.85;;;25.20;99.90;;;;;;8317131;28;20015;-81
2023/08/21 18:41:17;;;;;;;13.20;7.38;;;25.10;99.90;;;;;;8248279;28;20045;-81
2023/08/21 18:45:18;;;;;;;11.13;7.68;;;25.00;99.90;;;;;;8313383;28;20030;-81
2023/08/21 18:49:19;;;;;;;10.30;8.25;;;24.80;99.90;;;;;;8251543;28;20035;-81
2023/08/21 18:53:19;;;;;;;11.25;8.30;;;24.70;99.90;;;;;;8238106;28;20030;-81
2023/08/21 18:57:20;;;;;;;13.23;9.48;;;24.60;99.90;;;;;;8246307;28;20065;-81
2023/08/21 19:01:20;;;;;;;10.93;7.82;;;24.50;99.90;;;;;;8317505;28;20036;-81
2023/08/21 19:05:21;;;;;;;14.63;7.70;;;24.40;99.90;;;;;;8305315;28;20542;-81
2023/08/21 19:09:22;;;;;;;10.40;8.20;;;24.20;99.90;;;;;;8309827;28;20058;-81
2023/08/21 19:13:22;;;;;;;10.10;8.45;;;24.10;99.90;;;;;;8339204;28;20074;-81
2023/08/21 19:17:24;;;;;;;13.60;10.60;;;24.10;99.90;;;;;;8310463;28;20096;-81
2023/08/21 19:21:25;;;;;;;21.33;12.60;;;23.90;99.90;;;;;;8324755;28;20038;-81
2023/08/21 19:25:26;;;;;;;21.75;11.98;;;23.90;99.90;;;;;;8241280;28;20088;-81
2023/08/21 19:29:26;;;;;;;18.58;11.73;;;23.60;99.90;;;;;;8307876;28;20030;-81
2023/08/21 19:33:27;;;;;;;21.30;11.68;;;23.60;99.90;;;;;;8321726;28;20084;-87
2023/08/21 19:37:27;;;;;;;18.65;11.55;;;23.60;99.90;;;;;;8249598;28;20034;-83
2023/08/21 19:41:28;;;;;;;19.17;13.13;;;23.40;99.90;;;;;;8248680;28;20483;-83
2023/08/21 19:45:28;;;;;;;17.13;11.07;;;23.30;99.90;;;;;;8315476;28;20476;-83
2023/08/21 19:49:29;;;;;;;17.33;11.13;;;23.30;99.90;;;;;;8309366;28;20030;-83
2023/08/21 19:53:30;;;;;;;14.25;10.95;;;23.10;99.90;;;;;;8309848;28;20064;-82
2023/08/21 19:57:30;;;;;;;15.73;11.63;;;23.20;99.90;;;;;;8309109;28;20461;-83
2023/08/21 20:01:31;;;;;;;17.88;11.63;;;23.10;99.90;;;;;;8242941;28;20406;-83
2023/08/21 20:05:32;;;;;;;21.35;12.32;;;22.80;99.90;;;;;;8238763;28;20027;-82
2023/08/21 20:09:32;;;;;;;14.32;11.43;;;22.60;99.90;;;;;;8320570;28;20034;-83
2023/08/21 20:13:33;;;;;;;12.15;10.85;;;22.40;99.90;;;;;;8300028;28;20038;-84
2023/08/21 20:17:33;;;;;;;17.33;10.60;;;22.30;99.90;;;;;;8302545;28;20024;-84
2023/08/21 20:21:34;;;;;;;14.18;11.38;;;22.40;99.90;;;;;;8314226;28;20026;-83
2023/08/21 20:25:35;;;;;;;15.82;12.90;;;22.30;99.90;;;;;;8313340;28;20041;-84
2023/08/21 20:29:35;;;;;;;14.50;12.10;;;22.30;99.90;;;;;;8308289;28;20081;-83
2023/08/21 20:33:36;;;;;;;18.60;13.52;;;22.30;99.90;;;;;;8306197;28;20075;-82
2023/08/21 20:37:37;;;;;;;15.70;13.23;;;22.30;99.90;;;;;;8309380;28;20486;-84